sensor_id;sensor_type;location;lat;lon;timestamp;temperature;humidity
43671;DHT22;29267;50.906;7.248;2022-09-23T00:01:01;14.30;99.90
43671;DHT22;29267;50.906;7.248;2022-09-23T00:03:30;14.30;99.90
43671;DHT22;29267;50.906;7.248;2022-09-23T00:06:05;14.30;99.90
43671;DHT22;29267;50.906;7.248;2022-09-23T00:08:32;14.30;99.90
43671;DHT22;29267;50.906;7.248;2022-09-23T00:11:03;14.30;99.90
43671;DHT22;29267;50.906;7.248;2022-09-23T00:13:30;14.30;99.90
43671;DHT22;29267;50.906;7.248;2022-09-23T00:15:55;14.30;99.90
43671;DHT22;29267;50.906;7.248;2022-09-23T00:18:21;14.30;99.90
43671;DHT22;29267;50.906;7.248;2022-09-23T00:20:47;14.30;99.90
43671;DHT22;29267;50.906;7.248;2022-09-23T00:23:12;14.30;99.90
43671;DHT22;29267;50.906;7.248;2022-09-23T00:25:38;14.40;99.90
43671;DHT22;29267;50.906;7.248;2022-09-23T00:28:03;14.30;99.90
43671;DHT22;29267;50.906;7.248;2022-09-23T00:30:29;14.30;99.90
43671;DHT22;29267;50.906;7.248;2022-09-23T00:32:55;14.30;99.90
43671;DHT22;29267;50.906;7.248;2022-09-23T00:35:21;14.30;99.90
43671;DHT22;29267;50.906;7.248;2022-09-23T00:37:47;14.30;99.90
43671;DHT22;29267;50.906;7.248;2022-09-23T00:40:13;14.30;99.90
43671;DHT22;29267;50.906;7.248;2022-09-23T00:42:46;14.30;99.90
43671;DHT22;29267;50.906;7.248;2022-09-23T00:45:13;14.30;99.90
43671;DHT22;29267;50.906;7.248;2022-09-23T00:50:31;14.30;99.90
43671;DHT22;29267;50.906;7.248;2022-09-23T00:53:07;14.30;99.90
43671;DHT22;29267;50.906;7.248;2022-09-23T00:55:41;14.30;99.90
43671;DHT22;29267;50.906;7.248;2022-09-23T00:58:10;14.30;99.90
43671;DHT22;29267;50.906;7.248;2022-09-23T01:00:37;14.30;99.90
43671;DHT22;29267;50.906;7.248;2022-09-23T01:03:05;14.30;99.90
43671;DHT22;29267;50.906;7.248;2022-09-23T01:05:33;14.30;99.90
43671;DHT22;29267;50.906;7.248;2022-09-23T01:08:02;14.30;99.90
43671;DHT22;29267;50.906;7.248;2022-09-23T01:10:35;14.30;99.90
43671;DHT22;29267;50.906;7.248;2022-09-23T01:13:23;14.30;99.90
43671;DHT22;29267;50.906;7.248;2022-09-23T01:15:57;14.30;99.90
43671;DHT22;29267;50.906;7.248;2022-09-23T01:18:30;14.30;99.90
43671;DHT22;29267;50.906;7.248;2022-09-23T01:23:53;14.30;99.90
43671;DHT22;29267;50.906;7.248;2022-09-23T01:32:17;14.30;99.90
43671;DHT22;29267;50.906;7.248;2022-09-23T01:34:51;14.30;99.90
43671;DHT22;29267;50.906;7.248;2022-09-23T01:40:23;14.30;99.90
43671;DHT22;29267;50.906;7.248;2022-09-23T01:43:02;14.30;99.90
43671;DHT22;29267;50.906;7.248;2022-09-23T01:45:50;14.30;99.90
43671;DHT22;29267;50.906;7.248;2022-09-23T01:48:49;14.30;99.90
43671;DHT22;29267;50.906;7.248;2022-09-23T01:51:22;14.30;99.90
43671;DHT22;29267;50.906;7.248;2022-09-23T01:54:13;14.20;99.90
43671;DHT22;29267;50.906;7.248;2022-09-23T01:56:48;14.20;99.90
43671;DHT22;29267;50.906;7.248;2022-09-23T01:59:23;14.20;99.90
43671;DHT22;29267;50.906;7.248;2022-09-23T02:04:39;14.20;99.90
43671;DHT22;29267;50.906;7.248;2022-09-23T02:07:35;14.20;99.90
43671;DHT22;29267;50.906;7.248;2022-09-23T02:10:06;14.20;99.90
43671;DHT22;29267;50.906;7.248;2022-09-23T02:12:40;14.20;99.90
43671;DHT22;29267;50.906;7.248;2022-09-23T02:15:32;14.20;99.90
43671;DHT22;29267;50.906;7.248;2022-09-23T02:18:08;14.20;99.90
43671;DHT22;29267;50.906;7.248;2022-09-23T02:20:38;14.20;99.90
43671;DHT22;29267;50.906;7.248;2022-09-23T02:23:12;14.20;99.90
43671;DHT22;29267;50.906;7.248;2022-09-23T02:25:53;14.20;99.90
43671;DHT22;29267;50.906;7.248;2022-09-23T02:31:34;14.10;99.90
43671;DHT22;29267;50.906;7.248;2022-09-23T02:34:14;14.10;99.90
43671;DHT22;29267;50.906;7.248;2022-09-23T02:37:01;14.20;99.90
43671;DHT22;29267;50.906;7.248;2022-09-23T02:39:40;14.10;99.90
43671;DHT22;29267;50.906;7.248;2022-09-23T02:42:10;14.10;99.90
43671;DHT22;29267;50.906;7.248;2022-09-23T02:44:37;14.10;99.90
43671;DHT22;29267;50.906;7.248;2022-09-23T02:47:03;14.20;99.90
43671;DHT22;29267;50.906;7.248;2022-09-23T02:49:30;14.10;99.90
43671;DHT22;29267;50.906;7.248;2022-09-23T02:51:59;14.10;99.90
43671;DHT22;29267;50.906;7.248;2022-09-23T02:54:26;14.10;99.90
43671;DHT22;29267;50.906;7.248;2022-09-23T02:56:53;14.10;99.90
43671;DHT22;29267;50.906;7.248;2022-09-23T02:59:22;14.10;99.90
43671;DHT22;29267;50.906;7.248;2022-09-23T03:19:25;14.10;99.90
43671;DHT22;29267;50.906;7.248;2022-09-23T03:21:35;14.00;99.90
43671;DHT22;29267;50.906;7.248;2022-09-23T03:24:05;14.00;99.90
43671;DHT22;29267;50.906;7.248;2022-09-23T03:26:35;14.00;99.90
43671;DHT22;29267;50.906;7.248;2022-09-23T03:29:03;14.00;99.90
43671;DHT22;29267;50.906;7.248;2022-09-23T03:31:31;14.00;99.90
43671;DHT22;29267;50.906;7.248;2022-09-23T03:34:00;14.00;99.90
43671;DHT22;29267;50.906;7.248;2022-09-23T03:36:55;14.00;99.90
43671;DHT22;29267;50.906;7.248;2022-09-23T03:39:48;13.90;99.90
43671;DHT22;29267;50.906;7.248;2022-09-23T03:42:25;13.90;99.90
43671;DHT22;29267;50.906;7.248;2022-09-23T03:44:53;14.00;99.90
43671;DHT22;29267;50.906;7.248;2022-09-23T03:47:21;14.00;99.90
43671;DHT22;29267;50.906;7.248;2022-09-23T03:49:48;13.90;99.90
43671;DHT22;29267;50.906;7.248;2022-09-23T03:52:16;14.00;99.90
43671;DHT22;29267;50.906;7.248;2022-09-23T03:54:42;13.90;99.90
43671;DHT22;29267;50.906;7.248;2022-09-23T03:57:09;14.00;99.90
43671;DHT22;29267;50.906;7.248;2022-09-23T03:59:35;13.90;99.90
43671;DHT22;29267;50.906;7.248;2022-09-23T04:02:01;14.00;99.90
43671;DHT22;29267;50.906;7.248;2022-09-23T04:04:27;14.00;99.90
43671;DHT22;29267;50.906;7.248;2022-09-23T04:06:54;14.00;99.90
43671;DHT22;29267;50.906;7.248;2022-09-23T04:09:21;13.90;99.90
43671;DHT22;29267;50.906;7.248;2022-09-23T04:11:48;13.90;99.90
43671;DHT22;29267;50.906;7.248;2022-09-23T04:14:14;13.90;99.90
43671;DHT22;29267;50.906;7.248;2022-09-23T04:16:40;13.90;99.90
43671;DHT22;29267;50.906;7.248;2022-09-23T04:19:05;13.90;99.90
43671;DHT22;29267;50.906;7.248;2022-09-23T04:21:31;13.90;99.90
43671;DHT22;29267;50.906;7.248;2022-09-23T04:23:57;13.90;99.90
43671;DHT22;29267;50.906;7.248;2022-09-23T04:26:23;13.90;99.90
43671;DHT22;29267;50.906;7.248;2022-09-23T04:28:48;13.90;99.90
43671;DHT22;29267;50.906;7.248;2022-09-23T04:31:14;13.90;99.90
43671;DHT22;29267;50.906;7.248;2022-09-23T04:33:40;14.00;99.90
43671;DHT22;29267;50.906;7.248;2022-09-23T04:36:05;14.00;99.90
43671;DHT22;29267;50.906;7.248;2022-09-23T04:38:31;13.90;99.90
43671;DHT22;29267;50.906;7.248;2022-09-23T04:40:57;13.90;99.90
43671;DHT22;29267;50.906;7.248;2022-09-23T04:43:23;13.90;99.90
43671;DHT22;29267;50.906;7.248;2022-09-23T04:46:05;13.80;99.90
43671;DHT22;29267;50.906;7.248;2022-09-23T04:48:32;13.80;99.90
43671;DHT22;29267;50.906;7.248;2022-09-23T04:53:28;13.80;99.90
43671;DHT22;29267;50.906;7.248;2022-09-23T04:55:59;13.80;99.90
43671;DHT22;29267;50.906;7.248;2022-09-23T04:58:25;13.80;99.90
43671;DHT22;29267;50.906;7.248;2022-09-23T05:00:50;13.80;99.90
43671;DHT22;29267;50.906;7.248;2022-09-23T05:03:16;13.80;99.90
43671;DHT22;29267;50.906;7.248;2022-09-23T05:05:42;13.80;99.90
43671;DHT22;29267;50.906;7.248;2022-09-23T05:08:08;13.80;99.90
43671;DHT22;29267;50.906;7.248;2022-09-23T05:10:33;13.80;99.90
43671;DHT22;29267;50.906;7.248;2022-09-23T05:12:59;13.70;99.90
43671;DHT22;29267;50.906;7.248;2022-09-23T05:15:24;13.70;99.90
43671;DHT22;29267;50.906;7.248;2022-09-23T05:17:50;13.70;99.90
43671;DHT22;29267;50.906;7.248;2022-09-23T05:20:16;13.70;99.90
43671;DHT22;29267;50.906;7.248;2022-09-23T05:22:42;13.70;99.90
43671;DHT22;29267;50.906;7.248;2022-09-23T05:25:09;13.80;99.90
43671;DHT22;29267;50.906;7.248;2022-09-23T05:27:34;13.70;99.90
43671;DHT22;29267;50.906;7.248;2022-09-23T05:30:01;13.80;99.90
43671;DHT22;29267;50.906;7.248;2022-09-23T05:32:26;13.80;99.90
43671;DHT22;29267;50.906;7.248;2022-09-23T05:34:52;13.80;99.90
43671;DHT22;29267;50.906;7.248;2022-09-23T05:37:19;13.80;99.90
43671;DHT22;29267;50.906;7.248;2022-09-23T05:39:45;13.80;99.90
43671;DHT22;29267;50.906;7.248;2022-09-23T05:42:10;13.80;99.90
43671;DHT22;29267;50.906;7.248;2022-09-23T05:44:36;13.70;99.90
43671;DHT22;29267;50.906;7.248;2022-09-23T05:47:03;13.70;99.90
43671;DHT22;29267;50.906;7.248;2022-09-23T05:49:29;13.80;99.90
43671;DHT22;29267;50.906;7.248;2022-09-23T05:51:55;13.70;99.90
43671;DHT22;29267;50.906;7.248;2022-09-23T05:54:21;13.80;99.90
43671;DHT22;29267;50.906;7.248;2022-09-23T05:56:46;13.70;99.90
43671;DHT22;29267;50.906;7.248;2022-09-23T05:59:12;13.70;99.90
43671;DHT22;29267;50.906;7.248;2022-09-23T06:01:37;13.70;99.90
43671;DHT22;29267;50.906;7.248;2022-09-23T06:04:05;13.70;99.90
43671;DHT22;29267;50.906;7.248;2022-09-23T06:06:39;13.70;99.90
43671;DHT22;29267;50.906;7.248;2022-09-23T06:09:09;13.70;99.90
43671;DHT22;29267;50.906;7.248;2022-09-23T06:11:36;13.60;99.90
43671;DHT22;29267;50.906;7.248;2022-09-23T06:14:02;13.60;99.90
43671;DHT22;29267;50.906;7.248;2022-09-23T06:16:30;13.60;99.90
43671;DHT22;29267;50.906;7.248;2022-09-23T06:18:56;13.60;99.90
43671;DHT22;29267;50.906;7.248;2022-09-23T06:21:23;13.60;99.90
43671;DHT22;29267;50.906;7.248;2022-09-23T06:23:48;13.60;99.90
43671;DHT22;29267;50.906;7.248;2022-09-23T06:26:15;13.60;99.90
43671;DHT22;29267;50.906;7.248;2022-09-23T06:28:41;13.60;99.90
43671;DHT22;29267;50.906;7.248;2022-09-23T06:31:15;13.60;99.90
43671;DHT22;29267;50.906;7.248;2022-09-23T06:33:42;13.60;99.90
43671;DHT22;29267;50.906;7.248;2022-09-23T06:36:10;13.60;99.90
43671;DHT22;29267;50.906;7.248;2022-09-23T06:38:40;13.60;99.90
43671;DHT22;29267;50.906;7.248;2022-09-23T06:41:08;13.60;99.90
43671;DHT22;29267;50.906;7.248;2022-09-23T06:43:34;13.70;99.90
43671;DHT22;29267;50.906;7.248;2022-09-23T06:46:01;13.70;99.90
43671;DHT22;29267;50.906;7.248;2022-09-23T06:48:28;13.70;99.90
43671;DHT22;29267;50.906;7.248;2022-09-23T06:50:58;13.60;99.90
43671;DHT22;29267;50.906;7.248;2022-09-23T06:53:24;13.70;99.90
43671;DHT22;29267;50.906;7.248;2022-09-23T06:56:22;13.60;99.90
43671;DHT22;29267;50.906;7.248;2022-09-23T06:58:50;13.60;99.90
43671;DHT22;29267;50.906;7.248;2022-09-23T07:01:16;13.70;99.90
43671;DHT22;29267;50.906;7.248;2022-09-23T07:03:44;13.60;99.90
43671;DHT22;29267;50.906;7.248;2022-09-23T07:06:11;13.70;99.90
43671;DHT22;29267;50.906;7.248;2022-09-23T07:08:41;13.70;99.90
43671;DHT22;29267;50.906;7.248;2022-09-23T07:11:06;13.60;99.90
43671;DHT22;29267;50.906;7.248;2022-09-23T07:13:35;13.60;99.90
43671;DHT22;29267;50.906;7.248;2022-09-23T07:16:02;13.60;99.90
43671;DHT22;29267;50.906;7.248;2022-09-23T07:18:32;13.60;99.90
43671;DHT22;29267;50.906;7.248;2022-09-23T07:21:09;13.60;99.90
43671;DHT22;29267;50.906;7.248;2022-09-23T07:23:48;13.70;99.90
43671;DHT22;29267;50.906;7.248;2022-09-23T07:26:16;13.70;99.90
43671;DHT22;29267;50.906;7.248;2022-09-23T07:28:43;13.60;99.90
43671;DHT22;29267;50.906;7.248;2022-09-23T07:31:12;13.70;99.90
43671;DHT22;29267;50.906;7.248;2022-09-23T07:33:39;13.70;99.90
43671;DHT22;29267;50.906;7.248;2022-09-23T07:36:10;13.70;99.90
43671;DHT22;29267;50.906;7.248;2022-09-23T07:38:37;13.80;99.90
43671;DHT22;29267;50.906;7.248;2022-09-23T07:41:08;13.80;99.90
43671;DHT22;29267;50.906;7.248;2022-09-23T07:43:35;13.80;99.90
43671;DHT22;29267;50.906;7.248;2022-09-23T07:46:05;13.80;99.90
43671;DHT22;29267;50.906;7.248;2022-09-23T07:48:33;13.80;99.90
43671;DHT22;29267;50.906;7.248;2022-09-23T07:50:59;13.80;99.90
43671;DHT22;29267;50.906;7.248;2022-09-23T07:53:25;13.70;99.90
43671;DHT22;29267;50.906;7.248;2022-09-23T07:55:53;13.80;99.90
43671;DHT22;29267;50.906;7.248;2022-09-23T07:58:19;13.70;99.90
43671;DHT22;29267;50.906;7.248;2022-09-23T08:00:45;13.70;99.90
43671;DHT22;29267;50.906;7.248;2022-09-23T08:03:11;13.70;99.90
43671;DHT22;29267;50.906;7.248;2022-09-23T08:05:36;13.70;99.90
43671;DHT22;29267;50.906;7.248;2022-09-23T08:08:03;13.70;99.90
43671;DHT22;29267;50.906;7.248;2022-09-23T08:10:32;13.70;99.90
43671;DHT22;29267;50.906;7.248;2022-09-23T08:12:58;13.70;99.90
43671;DHT22;29267;50.906;7.248;2022-09-23T08:15:24;13.70;99.90
43671;DHT22;29267;50.906;7.248;2022-09-23T08:17:51;13.70;99.90
43671;DHT22;29267;50.906;7.248;2022-09-23T08:20:17;13.70;99.90
43671;DHT22;29267;50.906;7.248;2022-09-23T08:23:03;13.70;99.90
43671;DHT22;29267;50.906;7.248;2022-09-23T08:25:28;13.70;99.90
43671;DHT22;29267;50.906;7.248;2022-09-23T08:27:55;13.70;99.90
43671;DHT22;29267;50.906;7.248;2022-09-23T08:30:21;13.70;99.90
43671;DHT22;29267;50.906;7.248;2022-09-23T08:32:49;13.70;99.90
43671;DHT22;29267;50.906;7.248;2022-09-23T08:35:15;13.70;99.90
43671;DHT22;29267;50.906;7.248;2022-09-23T08:37:41;13.70;99.90
43671;DHT22;29267;50.906;7.248;2022-09-23T08:40:07;13.70;99.90
43671;DHT22;29267;50.906;7.248;2022-09-23T08:42:33;13.70;99.90
43671;DHT22;29267;50.906;7.248;2022-09-23T08:45:03;13.70;99.90
43671;DHT22;29267;50.906;7.248;2022-09-23T08:50:20;13.70;99.90
43671;DHT22;29267;50.906;7.248;2022-09-23T08:52:53;13.80;99.90
43671;DHT22;29267;50.906;7.248;2022-09-23T08:55:38;13.70;99.90
43671;DHT22;29267;50.906;7.248;2022-09-23T09:01:19;13.70;99.90
43671;DHT22;29267;50.906;7.248;2022-09-23T09:04:00;13.80;99.90
43671;DHT22;29267;50.906;7.248;2022-09-23T09:06:35;13.80;99.90
43671;DHT22;29267;50.906;7.248;2022-09-23T09:09:05;13.70;99.90
43671;DHT22;29267;50.906;7.248;2022-09-23T09:11:39;13.80;99.90
43671;DHT22;29267;50.906;7.248;2022-09-23T09:14:18;13.70;99.90
43671;DHT22;29267;50.906;7.248;2022-09-23T09:19:20;13.80;99.90
43671;DHT22;29267;50.906;7.248;2022-09-23T09:21:50;13.70;99.90
43671;DHT22;29267;50.906;7.248;2022-09-23T09:24:24;13.70;99.90
43671;DHT22;29267;50.906;7.248;2022-09-23T09:26:54;13.70;99.90
43671;DHT22;29267;50.906;7.248;2022-09-23T09:29:26;13.70;99.90
43671;DHT22;29267;50.906;7.248;2022-09-23T09:31:53;13.80;99.90
43671;DHT22;29267;50.906;7.248;2022-09-23T09:34:50;13.70;99.90
43671;DHT22;29267;50.906;7.248;2022-09-23T09:39:50;13.80;99.90
43671;DHT22;29267;50.906;7.248;2022-09-23T09:42:23;13.80;99.90
43671;DHT22;29267;50.906;7.248;2022-09-23T09:45:03;13.80;99.90
43671;DHT22;29267;50.906;7.248;2022-09-23T09:47:55;13.80;99.90
43671;DHT22;29267;50.906;7.248;2022-09-23T09:50:46;13.80;99.90
43671;DHT22;29267;50.906;7.248;2022-09-23T09:56:11;13.80;99.90
43671;DHT22;29267;50.906;7.248;2022-09-23T09:59:05;13.80;99.90
43671;DHT22;29267;50.906;7.248;2022-09-23T10:01:33;13.80;99.90
43671;DHT22;29267;50.906;7.248;2022-09-23T10:04:05;13.80;99.90
43671;DHT22;29267;50.906;7.248;2022-09-23T10:06:34;13.80;99.90
43671;DHT22;29267;50.906;7.248;2022-09-23T10:11:29;13.80;99.90
43671;DHT22;29267;50.906;7.248;2022-09-23T10:16:28;13.80;99.90
43671;DHT22;29267;50.906;7.248;2022-09-23T10:19:02;13.80;99.90
43671;DHT22;29267;50.906;7.248;2022-09-23T10:21:36;13.80;99.90
43671;DHT22;29267;50.906;7.248;2022-09-23T10:24:05;13.80;99.90
43671;DHT22;29267;50.906;7.248;2022-09-23T10:29:18;13.90;99.90
43671;DHT22;29267;50.906;7.248;2022-09-23T10:31:44;13.90;99.90
43671;DHT22;29267;50.906;7.248;2022-09-23T10:34:25;13.80;99.90
43671;DHT22;29267;50.906;7.248;2022-09-23T10:37:16;13.90;99.90
43671;DHT22;29267;50.906;7.248;2022-09-23T10:39:43;13.80;99.90
43671;DHT22;29267;50.906;7.248;2022-09-23T10:45:28;13.80;99.90
43671;DHT22;29267;50.906;7.248;2022-09-23T10:48:45;13.90;99.90
43671;DHT22;29267;50.906;7.248;2022-09-23T10:51:22;13.90;99.90
43671;DHT22;29267;50.906;7.248;2022-09-23T10:54:13;13.90;99.90
43671;DHT22;29267;50.906;7.248;2022-09-23T10:57:10;13.90;99.90
43671;DHT22;29267;50.906;7.248;2022-09-23T11:00:20;13.90;99.90
43671;DHT22;29267;50.906;7.248;2022-09-23T11:09:05;13.90;99.90
43671;DHT22;29267;50.906;7.248;2022-09-23T11:38:49;14.00;99.90
43671;DHT22;29267;50.906;7.248;2022-09-23T11:41:32;13.90;99.90
43671;DHT22;29267;50.906;7.248;2022-09-23T11:44:06;13.90;99.90
43671;DHT22;29267;50.906;7.248;2022-09-23T11:47:33;13.90;99.90
43671;DHT22;29267;50.906;7.248;2022-09-23T11:49:40;13.90;99.90
43671;DHT22;29267;50.906;7.248;2022-09-23T11:52:15;13.90;99.90
43671;DHT22;29267;50.906;7.248;2022-09-23T11:55:17;13.90;99.90
43671;DHT22;29267;50.906;7.248;2022-09-23T11:57:55;13.90;99.90
43671;DHT22;29267;50.906;7.248;2022-09-23T12:00:23;14.00;99.90
43671;DHT22;29267;50.906;7.248;2022-09-23T12:06:11;14.00;99.90
43671;DHT22;29267;50.906;7.248;2022-09-23T12:08:38;14.00;99.90
43671;DHT22;29267;50.906;7.248;2022-09-23T12:27:42;14.00;99.90
43671;DHT22;29267;50.906;7.248;2022-09-23T12:30:28;14.00;99.90
43671;DHT22;29267;50.906;7.248;2022-09-23T12:33:30;14.00;99.90
43671;DHT22;29267;50.906;7.248;2022-09-23T12:36:05;14.00;99.90
43671;DHT22;29267;50.906;7.248;2022-09-23T12:38:51;14.00;99.90
43671;DHT22;29267;50.906;7.248;2022-09-23T12:41:29;14.00;99.90
43671;DHT22;29267;50.906;7.248;2022-09-23T12:46:44;14.00;99.90
43671;DHT22;29267;50.906;7.248;2022-09-23T12:49:23;14.00;99.90
43671;DHT22;29267;50.906;7.248;2022-09-23T12:54:44;14.00;99.90
43671;DHT22;29267;50.906;7.248;2022-09-23T13:06:00;14.00;99.90
43671;DHT22;29267;50.906;7.248;2022-09-23T13:08:45;14.10;99.90
43671;DHT22;29267;50.906;7.248;2022-09-23T13:11:21;14.10;99.90
43671;DHT22;29267;50.906;7.248;2022-09-23T13:13:50;14.10;99.90
43671;DHT22;29267;50.906;7.248;2022-09-23T13:16:20;14.10;99.90
43671;DHT22;29267;50.906;7.248;2022-09-23T13:24:19;14.10;99.90
43671;DHT22;29267;50.906;7.248;2022-09-23T13:29:58;14.10;99.90
43671;DHT22;29267;50.906;7.248;2022-09-23T13:32:31;14.10;99.90
43671;DHT22;29267;50.906;7.248;2022-09-23T13:35:04;14.10;99.90
43671;DHT22;29267;50.906;7.248;2022-09-23T13:40:20;14.10;99.90
43671;DHT22;29267;50.906;7.248;2022-09-23T13:43:11;14.10;99.90
43671;DHT22;29267;50.906;7.248;2022-09-23T13:45:40;14.10;99.90
43671;DHT22;29267;50.906;7.248;2022-09-23T13:48:12;14.10;99.90
43671;DHT22;29267;50.906;7.248;2022-09-23T13:50:44;14.10;99.90
43671;DHT22;29267;50.906;7.248;2022-09-23T13:53:24;14.10;99.90
43671;DHT22;29267;50.906;7.248;2022-09-23T13:56:22;14.10;99.90
43671;DHT22;29267;50.906;7.248;2022-09-23T13:58:46;14.10;99.90
43671;DHT22;29267;50.906;7.248;2022-09-23T14:01:33;14.10;99.90
43671;DHT22;29267;50.906;7.248;2022-09-23T14:04:00;14.10;99.90
43671;DHT22;29267;50.906;7.248;2022-09-23T14:06:29;14.20;99.90
43671;DHT22;29267;50.906;7.248;2022-09-23T14:08:56;14.20;99.90
43671;DHT22;29267;50.906;7.248;2022-09-23T14:11:29;14.20;99.90
43671;DHT22;29267;50.906;7.248;2022-09-23T14:13:56;14.20;99.90
43671;DHT22;29267;50.906;7.248;2022-09-23T14:16:24;14.20;99.90
43671;DHT22;29267;50.906;7.248;2022-09-23T14:18:55;14.20;99.90
43671;DHT22;29267;50.906;7.248;2022-09-23T14:27:00;14.20;99.90
43671;DHT22;29267;50.906;7.248;2022-09-23T14:29:39;14.20;99.90
43671;DHT22;29267;50.906;7.248;2022-09-23T14:32:14;14.20;99.90
43671;DHT22;29267;50.906;7.248;2022-09-23T14:37:26;14.20;99.90
43671;DHT22;29267;50.906;7.248;2022-09-23T14:42:48;14.20;99.90
43671;DHT22;29267;50.906;7.248;2022-09-23T14:45:37;14.20;99.90
43671;DHT22;29267;50.906;7.248;2022-09-23T14:50:30;14.20;99.90
43671;DHT22;29267;50.906;7.248;2022-09-23T15:01:38;14.50;99.90
43671;DHT22;29267;50.906;7.248;2022-09-23T15:04:27;14.70;99.90
43671;DHT22;29267;50.906;7.248;2022-09-23T15:07:02;14.70;99.90
43671;DHT22;29267;50.906;7.248;2022-09-23T15:09:35;14.70;99.90
43671;DHT22;29267;50.906;7.248;2022-09-23T15:12:06;14.80;99.90
43671;DHT22;29267;50.906;7.248;2022-09-23T15:14:36;14.80;99.90
43671;DHT22;29267;50.906;7.248;2022-09-23T15:17:06;14.90;99.90
43671;DHT22;29267;50.906;7.248;2022-09-23T15:19:36;14.90;99.90
43671;DHT22;29267;50.906;7.248;2022-09-23T15:22:02;14.90;99.90
43671;DHT22;29267;50.906;7.248;2022-09-23T15:24:34;15.00;99.90
43671;DHT22;29267;50.906;7.248;2022-09-23T15:27:00;14.90;99.90
43671;DHT22;29267;50.906;7.248;2022-09-23T15:29:27;15.00;99.90
43671;DHT22;29267;50.906;7.248;2022-09-23T15:31:52;15.00;99.90
43671;DHT22;29267;50.906;7.248;2022-09-23T15:34:19;15.00;99.90
43671;DHT22;29267;50.906;7.248;2022-09-23T15:36:45;15.00;99.90
43671;DHT22;29267;50.906;7.248;2022-09-23T15:39:12;15.00;99.90
43671;DHT22;29267;50.906;7.248;2022-09-23T15:41:38;15.00;99.90
43671;DHT22;29267;50.906;7.248;2022-09-23T15:44:14;14.90;99.90
43671;DHT22;29267;50.906;7.248;2022-09-23T15:46:45;14.90;99.90
43671;DHT22;29267;50.906;7.248;2022-09-23T15:49:27;14.90;99.90
43671;DHT22;29267;50.906;7.248;2022-09-23T15:51:58;14.90;99.90
43671;DHT22;29267;50.906;7.248;2022-09-23T15:54:25;14.90;99.90
43671;DHT22;29267;50.906;7.248;2022-09-23T15:56:50;14.80;99.90
43671;DHT22;29267;50.906;7.248;2022-09-23T15:59:16;14.80;99.90
43671;DHT22;29267;50.906;7.248;2022-09-23T16:01:42;14.80;99.90
43671;DHT22;29267;50.906;7.248;2022-09-23T16:04:09;14.80;99.90
43671;DHT22;29267;50.906;7.248;2022-09-23T16:06:36;14.80;99.90
43671;DHT22;29267;50.906;7.248;2022-09-23T16:09:02;14.80;99.90
43671;DHT22;29267;50.906;7.248;2022-09-23T16:11:29;14.80;99.90
43671;DHT22;29267;50.906;7.248;2022-09-23T16:13:56;14.70;99.90
43671;DHT22;29267;50.906;7.248;2022-09-23T16:16:22;14.70;99.90
43671;DHT22;29267;50.906;7.248;2022-09-23T16:18:48;14.70;99.90
43671;DHT22;29267;50.906;7.248;2022-09-23T16:21:19;14.60;99.90
43671;DHT22;29267;50.906;7.248;2022-09-23T16:23:46;14.60;99.90
43671;DHT22;29267;50.906;7.248;2022-09-23T16:26:30;14.60;99.90
43671;DHT22;29267;50.906;7.248;2022-09-23T16:28:57;14.60;99.90
43671;DHT22;29267;50.906;7.248;2022-09-23T16:31:24;14.60;99.90
43671;DHT22;29267;50.906;7.248;2022-09-23T16:33:52;14.60;99.90
43671;DHT22;29267;50.906;7.248;2022-09-23T16:36:30;14.60;99.90
43671;DHT22;29267;50.906;7.248;2022-09-23T16:38:58;14.60;99.90
43671;DHT22;29267;50.906;7.248;2022-09-23T16:41:26;14.60;99.90
43671;DHT22;29267;50.906;7.248;2022-09-23T16:43:59;14.60;99.90
43671;DHT22;29267;50.906;7.248;2022-09-23T16:46:26;14.50;99.90
43671;DHT22;29267;50.906;7.248;2022-09-23T16:48:52;14.50;99.90
43671;DHT22;29267;50.906;7.248;2022-09-23T16:51:20;14.50;99.90
43671;DHT22;29267;50.906;7.248;2022-09-23T16:53:46;14.50;99.90
43671;DHT22;29267;50.906;7.248;2022-09-23T16:56:14;14.50;99.90
43671;DHT22;29267;50.906;7.248;2022-09-23T16:58:42;14.50;99.90
43671;DHT22;29267;50.906;7.248;2022-09-23T17:01:14;14.50;99.90
43671;DHT22;29267;50.906;7.248;2022-09-23T17:04:00;14.50;99.90
43671;DHT22;29267;50.906;7.248;2022-09-23T17:06:26;14.50;99.90
43671;DHT22;29267;50.906;7.248;2022-09-23T17:08:53;14.50;99.90
43671;DHT22;29267;50.906;7.248;2022-09-23T17:11:19;14.50;99.90
43671;DHT22;29267;50.906;7.248;2022-09-23T17:13:45;14.50;99.90
43671;DHT22;29267;50.906;7.248;2022-09-23T17:16:27;14.50;99.90
43671;DHT22;29267;50.906;7.248;2022-09-23T17:18:54;14.50;99.90
43671;DHT22;29267;50.906;7.248;2022-09-23T17:21:25;14.50;99.90
43671;DHT22;29267;50.906;7.248;2022-09-23T17:23:55;14.40;99.90
43671;DHT22;29267;50.906;7.248;2022-09-23T17:26:23;14.40;99.90
43671;DHT22;29267;50.906;7.248;2022-09-23T17:28:50;14.40;99.90
43671;DHT22;29267;50.906;7.248;2022-09-23T17:31:15;14.40;99.90
43671;DHT22;29267;50.906;7.248;2022-09-23T17:33:42;14.40;99.90
43671;DHT22;29267;50.906;7.248;2022-09-23T17:36:09;14.40;99.90
43671;DHT22;29267;50.906;7.248;2022-09-23T17:38:35;14.40;99.90
43671;DHT22;29267;50.906;7.248;2022-09-23T17:41:04;14.40;99.90
43671;DHT22;29267;50.906;7.248;2022-09-23T17:43:31;14.40;99.90
43671;DHT22;29267;50.906;7.248;2022-09-23T17:46:02;14.40;99.90
43671;DHT22;29267;50.906;7.248;2022-09-23T17:48:31;14.40;99.90
43671;DHT22;29267;50.906;7.248;2022-09-23T17:51:13;14.40;99.90
43671;DHT22;29267;50.906;7.248;2022-09-23T17:53:41;14.40;99.90
43671;DHT22;29267;50.906;7.248;2022-09-23T17:58:39;14.40;99.90
43671;DHT22;29267;50.906;7.248;2022-09-23T18:01:11;14.30;99.90
43671;DHT22;29267;50.906;7.248;2022-09-23T18:03:38;14.30;99.90
43671;DHT22;29267;50.906;7.248;2022-09-23T18:06:15;14.30;99.90
43671;DHT22;29267;50.906;7.248;2022-09-23T18:08:42;14.30;99.90
43671;DHT22;29267;50.906;7.248;2022-09-23T18:11:24;14.30;99.90
43671;DHT22;29267;50.906;7.248;2022-09-23T18:13:52;14.30;99.90
43671;DHT22;29267;50.906;7.248;2022-09-23T18:16:20;14.30;99.90
43671;DHT22;29267;50.906;7.248;2022-09-23T18:19:05;14.30;99.90
43671;DHT22;29267;50.906;7.248;2022-09-23T18:21:34;14.30;99.90
43671;DHT22;29267;50.906;7.248;2022-09-23T18:24:00;14.30;99.90
43671;DHT22;29267;50.906;7.248;2022-09-23T18:26:26;14.30;99.90
43671;DHT22;29267;50.906;7.248;2022-09-23T18:28:53;14.30;99.90
43671;DHT22;29267;50.906;7.248;2022-09-23T18:31:26;14.30;99.90
43671;DHT22;29267;50.906;7.248;2022-09-23T18:33:54;14.40;99.90
43671;DHT22;29267;50.906;7.248;2022-09-23T18:36:21;14.40;99.90
43671;DHT22;29267;50.906;7.248;2022-09-23T18:38:47;14.60;99.90
43671;DHT22;29267;50.906;7.248;2022-09-23T18:41:13;14.80;99.90
43671;DHT22;29267;50.906;7.248;2022-09-23T18:43:39;15.00;99.90